createdAt,value
2022-08-17T00:00:43.244Z,14.18
2022-08-17T00:03:22.253Z,14.15
2022-08-17T00:05:54.616Z,16.80
2022-08-17T00:08:25.854Z,13.18
2022-08-17T00:10:54.637Z,12.73
2022-08-17T00:13:44.654Z,14.30
2022-08-17T00:16:18.145Z,13.48
2022-08-17T00:19:06.104Z,13.30
2022-08-17T00:22:29.804Z,16.40
2022-08-17T00:24:24.482Z,13.48
2022-08-17T00:26:52.507Z,18.95
2022-08-17T00:29:20.323Z,15.70
2022-08-17T00:31:48.597Z,16.15
2022-08-17T00:34:16.455Z,15.35
2022-08-17T00:36:44.276Z,16.02
2022-08-17T00:39:11.866Z,18.70
2022-08-17T00:41:42.251Z,14.70
2022-08-17T00:44:12.381Z,14.90
2022-08-17T00:46:43.235Z,14.70
2022-08-17T00:49:13.042Z,16.23
2022-08-17T00:51:43.575Z,14.57
2022-08-17T00:54:31.141Z,16.48
2022-08-17T00:57:00.786Z,15.75
2022-08-17T00:59:37.699Z,16.80
2022-08-17T01:02:08.610Z,12.98
2022-08-17T01:04:36.761Z,16.40
2022-08-17T01:07:05.941Z,17.52
2022-08-17T01:09:33.878Z,16.40
2022-08-17T01:12:01.668Z,19.13
2022-08-17T01:14:29.232Z,19.08
2022-08-17T01:16:56.785Z,19.95
2022-08-17T01:19:36.907Z,16.73
2022-08-17T01:22:11.266Z,18.02
2022-08-17T01:24:42.387Z,15.70
2022-08-17T01:27:11.541Z,17.40
2022-08-17T01:29:43.382Z,17.95
2022-08-17T01:32:11.136Z,18.08
2022-08-17T01:34:43.933Z,17.77
2022-08-17T01:37:19.735Z,17.25
2022-08-17T01:39:55.840Z,21.23
2022-08-17T01:42:30.970Z,16.67
2022-08-17T01:45:05.333Z,16.73
2022-08-17T01:47:33.045Z,16.58
2022-08-17T01:50:10.821Z,16.67
2022-08-17T01:52:38.965Z,16.88
2022-08-17T01:55:07.804Z,20.85
2022-08-17T01:57:35.356Z,18.48
2022-08-17T02:00:05.780Z,21.08
2022-08-17T02:02:33.327Z,22.80
2022-08-17T02:05:00.743Z,17.45
2022-08-17T02:07:29.123Z,19.35
2022-08-17T02:09:56.966Z,19.38
2022-08-17T02:12:38.444Z,20.27
2022-08-17T02:15:09.642Z,19.70
2022-08-17T02:17:37.137Z,17.13
2022-08-17T02:20:05.665Z,17.58
2022-08-17T02:22:33.276Z,21.27
2022-08-17T02:25:02.592Z,19.38
2022-08-17T02:27:30.394Z,19.60
2022-08-17T02:29:58.001Z,18.00
2022-08-17T02:32:28.007Z,23.10
2022-08-17T02:34:57.356Z,20.25
2022-08-17T02:37:26.000Z,21.52
2022-08-17T02:39:54.094Z,26.63
2022-08-17T02:42:28.008Z,22.30
2022-08-17T02:44:55.661Z,19.35
2022-08-17T02:47:23.479Z,21.45
2022-08-17T02:49:54.231Z,21.00
2022-08-17T02:53:01.712Z,21.35
2022-08-17T02:55:20.852Z,21.52
2022-08-17T02:57:49.645Z,20.15
2022-08-17T03:00:28.928Z,22.27
2022-08-17T03:02:57.576Z,22.40
2022-08-17T03:05:27.059Z,22.27
2022-08-17T03:07:56.441Z,22.20
2022-08-17T03:10:24.866Z,22.98
2022-08-17T03:12:53.243Z,26.15
2022-08-17T03:15:24.291Z,26.08
2022-08-17T03:20:20.983Z,26.75
2022-08-17T03:22:53.603Z,23.17
2022-08-17T03:25:32.641Z,24.70
2022-08-17T03:28:02.203Z,24.95
2022-08-17T03:30:30.011Z,21.85
2022-08-17T03:33:00.233Z,22.20
2022-08-17T03:35:31.221Z,28.03
2022-08-17T03:38:00.384Z,27.75
2022-08-17T03:40:55.026Z,26.13
2022-08-17T03:43:16.615Z,24.05
2022-08-17T03:46:02.637Z,23.83
2022-08-17T03:48:49.422Z,23.73
2022-08-17T03:51:40.061Z,25.65
2022-08-17T03:54:28.957Z,25.75
2022-08-17T03:57:14.104Z,24.65
2022-08-17T03:59:41.850Z,24.55
2022-08-17T04:02:16.502Z,23.38
2022-08-17T04:04:44.021Z,30.27
2022-08-17T04:07:11.635Z,25.55
2022-08-17T04:09:39.220Z,30.33
2022-08-17T04:12:06.921Z,24.80
2022-08-17T04:14:51.890Z,29.30
2022-08-17T04:17:21.822Z,28.35
2022-08-17T04:19:49.255Z,26.80
2022-08-17T04:22:32.978Z,25.92
2022-08-17T04:25:13.800Z,27.98
2022-08-17T04:27:41.344Z,25.88
2022-08-17T04:30:09.527Z,27.05
2022-08-17T04:33:04.851Z,25.88
2022-08-17T04:35:46.360Z,27.80
2022-08-17T04:38:20.222Z,22.35
2022-08-17T04:41:07.107Z,31.27
2022-08-17T04:43:35.887Z,22.27
2022-08-17T04:46:10.120Z,25.92
2022-08-17T04:48:41.256Z,22.67
2022-08-17T04:51:13.780Z,28.63
2022-08-17T04:53:44.511Z,28.77
2022-08-17T04:56:16.663Z,24.63
2022-08-17T04:58:46.568Z,21.85
2022-08-17T05:01:15.324Z,21.23
2022-08-17T05:03:43.214Z,23.80
2022-08-17T05:06:11.204Z,23.85
2022-08-17T05:08:38.978Z,21.67
2022-08-17T05:11:08.404Z,22.98
2022-08-17T05:13:35.990Z,21.75
2022-08-17T05:16:04.802Z,26.00
2022-08-17T05:18:32.814Z,26.40
2022-08-17T05:21:00.520Z,21.20
2022-08-17T05:23:29.232Z,24.38
2022-08-17T05:26:25.460Z,26.02
2022-08-17T05:28:57.132Z,26.17
2022-08-17T05:31:28.858Z,28.23
2022-08-17T05:33:56.618Z,26.65
2022-08-17T05:36:42.112Z,23.38
2022-08-17T05:39:16.707Z,25.95
2022-08-17T05:41:48.495Z,23.23
2022-08-17T05:44:17.199Z,24.30
2022-08-17T05:46:50.024Z,22.27
2022-08-17T05:49:22.649Z,19.25
2022-08-17T05:52:03.111Z,20.23
2022-08-17T05:55:06.103Z,21.77
2022-08-17T05:58:02.517Z,18.73
2022-08-17T06:00:42.012Z,21.60
2022-08-17T06:03:41.840Z,20.05
2022-08-17T06:06:42.661Z,19.27
2022-08-17T06:09:24.783Z,21.65
2022-08-17T06:12:06.831Z,21.15
2022-08-17T06:14:53.620Z,16.92
2022-08-17T06:17:25.596Z,23.25
2022-08-17T06:19:56.730Z,19.15
2022-08-17T06:22:29.809Z,21.38
2022-08-17T06:25:01.188Z,20.90
2022-08-17T06:27:42.144Z,19.70
2022-08-17T06:30:24.805Z,19.75
2022-08-17T06:32:55.450Z,18.88
2022-08-17T06:35:34.174Z,19.95
2022-08-17T06:38:04.894Z,21.50
2022-08-17T06:40:52.244Z,17.58
2022-08-17T06:43:48.792Z,19.02
2022-08-17T06:46:34.681Z,17.88
2022-08-17T06:49:31.473Z,17.65
2022-08-17T06:52:46.185Z,18.63
2022-08-17T06:55:19.115Z,14.20
2022-08-17T06:57:52.194Z,24.42
2022-08-17T07:00:23.344Z,33.45
2022-08-17T07:03:02.486Z,30.00
2022-08-17T07:05:44.822Z,27.83
2022-08-17T07:08:18.700Z,25.88
2022-08-17T07:10:54.943Z,32.28
2022-08-17T07:13:29.693Z,22.35
2022-08-17T07:16:15.593Z,23.60
2022-08-17T07:18:44.012Z,45.55
2022-08-17T07:21:34.580Z,18.23
2022-08-17T07:24:30.662Z,22.25
2022-08-17T07:27:32.523Z,22.65
2022-08-17T07:30:10.840Z,21.80
2022-08-17T07:33:00.342Z,19.88
2022-08-17T07:35:31.266Z,23.75
2022-08-17T07:41:03.506Z,60.75
2022-08-17T07:43:39.997Z,23.15
2022-08-17T07:46:41.904Z,22.23
2022-08-17T07:49:14.947Z,26.80
2022-08-17T07:51:47.458Z,36.15
2022-08-17T07:54:23.752Z,33.80
2022-08-17T07:56:58.458Z,42.00
2022-08-17T07:59:33.700Z,39.78
2022-08-17T08:02:22.020Z,35.05
2022-08-17T08:05:03.596Z,39.45
2022-08-17T08:07:50.633Z,31.08
2022-08-17T08:10:29.682Z,34.22
2022-08-17T08:13:12.280Z,32.30
2022-08-17T08:15:54.285Z,33.38
2022-08-17T08:18:53.911Z,33.20
2022-08-17T08:21:31.327Z,32.40
2022-08-17T08:24:04.137Z,29.77
2022-08-17T08:26:59.732Z,30.77
2022-08-17T08:29:49.847Z,28.98
2022-08-17T08:32:39.654Z,30.13
2022-08-17T08:35:31.038Z,29.92
2022-08-17T08:38:15.503Z,27.17
2022-08-17T08:41:07.350Z,28.48
2022-08-17T08:44:10.493Z,27.60
2022-08-17T08:46:43.633Z,26.67
2022-08-17T08:50:04.054Z,27.30
2022-08-17T08:52:53.481Z,24.73
2022-08-17T08:55:53.707Z,23.90
2022-08-17T08:58:54.779Z,26.58
2022-08-17T09:01:31.763Z,33.88
2022-08-17T09:04:24.546Z,25.13
2022-08-17T09:06:58.064Z,21.63
2022-08-17T09:09:44.194Z,27.17
2022-08-17T09:12:41.754Z,30.25
2022-08-17T09:15:33.609Z,26.58
2022-08-17T09:19:02.508Z,67.28
2022-08-17T09:21:01.439Z,25.13
2022-08-17T09:23:42.268Z,22.52
2022-08-17T09:26:37.110Z,20.73
2022-08-17T09:29:10.118Z,22.23
2022-08-17T09:31:52.710Z,21.13
2022-08-17T09:34:51.231Z,24.38
2022-08-17T09:37:27.302Z,19.33
2022-08-17T09:40:14.011Z,19.10
2022-08-17T09:43:25.634Z,16.17
2022-08-17T09:45:59.983Z,15.32
2022-08-17T09:48:41.776Z,15.10
2022-08-17T09:51:40.210Z,16.25
2022-08-17T09:54:45.340Z,16.90
2022-08-17T09:57:47.435Z,16.85
2022-08-17T10:00:23.915Z,16.83
2022-08-17T10:03:00.684Z,15.73
2022-08-17T10:05:34.489Z,13.88
2022-08-17T10:08:07.266Z,11.80
2022-08-17T10:10:34.705Z,12.73
2022-08-17T10:13:53.102Z,9.82
2022-08-17T10:16:22.222Z,12.60
2022-08-17T10:19:13.933Z,8.15
2022-08-17T10:22:15.026Z,9.30
2022-08-17T10:25:22.501Z,11.02
2022-08-17T10:27:56.673Z,7.22
2022-08-17T10:30:27.587Z,9.07
2022-08-17T10:32:59.638Z,6.90
2022-08-17T10:35:39.336Z,4.55
2022-08-17T10:38:24.568Z,4.80
2022-08-17T10:41:16.231Z,5.30
2022-08-17T10:44:39.095Z,6.63
2022-08-17T10:47:15.526Z,3.45
2022-08-17T10:49:49.788Z,4.28
2022-08-17T10:52:19.822Z,6.07
2022-08-17T10:55:08.882Z,8.57
2022-08-17T10:57:39.998Z,5.53
2022-08-17T11:00:16.227Z,4.43
2022-08-17T11:02:52.742Z,6.05
2022-08-17T11:05:54.201Z,4.45
2022-08-17T11:08:49.096Z,10.73
2022-08-17T11:11:47.620Z,6.25
2022-08-17T11:14:39.963Z,5.63
2022-08-17T11:17:25.619Z,6.85
2022-08-17T11:20:05.549Z,5.40
2022-08-17T11:23:05.090Z,5.32
2022-08-17T11:25:48.462Z,4.18
2022-08-17T11:28:18.557Z,4.22
2022-08-17T11:30:53.673Z,4.05
2022-08-17T11:33:29.901Z,7.03
2022-08-17T11:36:22.052Z,7.57
2022-08-17T11:39:13.513Z,5.10
2022-08-17T11:42:28.043Z,6.60
2022-08-17T11:45:31.898Z,4.78
2022-08-17T11:48:34.735Z,4.32
2022-08-17T11:51:47.325Z,4.38
2022-08-17T11:54:34.389Z,7.68
2022-08-17T11:57:28.062Z,13.77
2022-08-17T12:00:01.036Z,3.58
2022-08-17T12:02:31.694Z,7.07
2022-08-17T12:05:14.490Z,4.80
2022-08-17T12:07:52.874Z,4.07
2022-08-17T12:10:31.838Z,5.90
2022-08-17T12:13:04.596Z,4.38
2022-08-17T12:15:37.041Z,8.13
2022-08-17T12:18:04.643Z,8.18
2022-08-17T12:20:40.163Z,5.00
2022-08-17T12:23:30.511Z,6.20
2022-08-17T12:26:11.913Z,4.78
2022-08-17T12:28:44.393Z,10.05
2022-08-17T12:31:34.531Z,4.25
2022-08-17T12:34:04.839Z,3.78
2022-08-17T12:36:33.828Z,7.13
2022-08-17T12:39:13.899Z,9.52
2022-08-17T12:41:57.415Z,5.35
2022-08-17T12:44:40.495Z,5.00
2022-08-17T12:47:22.548Z,5.03
2022-08-17T12:50:03.788Z,16.13
2022-08-17T12:55:11.396Z,10.90
2022-08-17T12:57:38.847Z,11.65
2022-08-17T13:00:20.766Z,8.88
2022-08-17T13:02:58.391Z,5.70
2022-08-17T13:05:55.011Z,7.28
2022-08-17T13:08:31.663Z,10.60
2022-08-17T13:11:01.292Z,8.07
2022-08-17T13:13:32.005Z,35.33
2022-08-17T13:16:05.755Z,11.88
2022-08-17T13:18:39.375Z,7.30
2022-08-17T13:21:20.218Z,11.27
2022-08-17T13:24:18.686Z,6.82
2022-08-17T13:26:57.212Z,7.80
2022-08-17T13:29:32.459Z,10.50
2022-08-17T13:32:13.333Z,5.35
2022-08-17T13:35:12.959Z,7.03
2022-08-17T13:37:38.297Z,7.30
2022-08-17T13:40:11.126Z,7.53
2022-08-17T13:42:54.216Z,7.40
2022-08-17T13:45:36.733Z,7.75
2022-08-17T13:48:24.067Z,10.35
2022-08-17T13:50:57.530Z,9.63
2022-08-17T13:53:26.655Z,24.80
2022-08-17T13:56:38.032Z,19.02
2022-08-17T13:59:12.364Z,9.38
2022-08-17T14:01:47.465Z,7.22
2022-08-17T14:04:22.477Z,10.88
2022-08-17T14:06:54.532Z,9.68
2022-08-17T14:09:26.076Z,7.18
2022-08-17T14:11:54.942Z,9.07
2022-08-17T14:14:23.368Z,10.25
2022-08-17T14:16:52.830Z,8.32
2022-08-17T14:19:24.510Z,8.52
2022-08-17T14:21:52.550Z,8.80
2022-08-17T14:24:29.662Z,11.48
2022-08-17T14:26:58.497Z,11.55
2022-08-17T14:29:28.745Z,11.85
2022-08-17T14:31:57.654Z,7.10
2022-08-17T14:34:25.784Z,8.77
2022-08-17T14:36:53.372Z,11.75
2022-08-17T14:39:21.199Z,8.52
2022-08-17T14:41:49.182Z,10.43
2022-08-17T14:44:17.173Z,8.65
2022-08-17T14:46:45.779Z,7.85
2022-08-17T14:49:15.785Z,6.90
2022-08-17T14:51:44.220Z,9.35
2022-08-17T14:54:33.273Z,6.68
2022-08-17T14:57:23.298Z,9.35
2022-08-17T14:59:54.456Z,8.55
2022-08-17T15:02:30.189Z,11.35
2022-08-17T15:05:05.978Z,11.32
2022-08-17T15:07:33.563Z,6.88
2022-08-17T15:10:02.248Z,10.38
2022-08-17T15:12:34.095Z,25.75
2022-08-17T15:15:06.455Z,17.48
2022-08-17T15:17:43.882Z,9.50
2022-08-17T15:20:17.146Z,7.95
2022-08-17T15:22:46.473Z,6.82
2022-08-17T15:25:15.323Z,4.63
2022-08-17T15:27:42.836Z,7.65
2022-08-17T15:30:11.117Z,6.90
2022-08-17T15:32:40.975Z,11.10
2022-08-17T15:35:15.748Z,6.47
2022-08-17T15:37:44.423Z,9.20
2022-08-17T15:40:12.679Z,6.38
2022-08-17T15:42:41.357Z,5.72
2022-08-17T15:45:12.748Z,8.80
2022-08-17T15:47:40.929Z,11.90
2022-08-17T15:50:09.704Z,8.90
2022-08-17T15:52:40.383Z,8.43
2022-08-17T15:55:12.391Z,8.93
2022-08-17T15:57:40.525Z,8.27
2022-08-17T16:00:09.848Z,13.48
2022-08-17T16:03:45.180Z,9.73
2022-08-17T16:05:28.694Z,9.18
2022-08-17T16:07:59.935Z,8.40
2022-08-17T16:10:34.580Z,8.77
2022-08-17T16:13:04.228Z,8.77
2022-08-17T16:15:32.332Z,11.13
2022-08-17T16:17:59.887Z,14.85
2022-08-17T16:20:27.737Z,9.55
2022-08-17T16:22:55.485Z,10.70
2022-08-17T16:25:50.305Z,8.95
2022-08-17T16:28:16.688Z,8.02
2022-08-17T16:30:44.507Z,11.23
2022-08-17T16:33:12.582Z,9.00
2022-08-17T16:35:42.123Z,7.72
2022-08-17T16:38:10.949Z,8.95
2022-08-17T16:40:38.586Z,8.10
2022-08-17T16:43:10.852Z,9.38
2022-08-17T16:45:41.002Z,8.25
2022-08-17T16:48:09.531Z,10.30
2022-08-17T16:50:37.290Z,9.05
2022-08-17T16:53:17.340Z,7.63
2022-08-17T16:55:48.882Z,8.55
2022-08-17T16:58:16.576Z,8.07
2022-08-17T17:00:45.889Z,10.75
2022-08-17T17:03:22.086Z,7.10
2022-08-17T17:06:01.660Z,7.38
2022-08-17T17:08:46.794Z,8.25
2022-08-17T17:11:21.692Z,7.07
2022-08-17T17:13:58.636Z,7.82
2022-08-17T17:16:29.305Z,10.45
2022-08-17T17:19:12.133Z,10.70
2022-08-17T17:21:49.637Z,10.68
2022-08-17T17:25:01.708Z,9.07
2022-08-17T17:27:37.848Z,11.27
2022-08-17T17:30:24.422Z,10.60
2022-08-17T17:32:51.936Z,12.50
2022-08-17T17:35:28.447Z,12.85
2022-08-17T17:37:58.147Z,10.93
2022-08-17T17:40:44.660Z,10.00
2022-08-17T17:43:37.869Z,11.75
2022-08-17T17:46:27.039Z,13.63
2022-08-17T17:48:57.033Z,14.63
2022-08-17T17:52:09.361Z,17.50
2022-08-17T17:54:57.632Z,11.10
2022-08-17T17:57:38.347Z,11.23
2022-08-17T18:00:11.325Z,16.27
2022-08-17T18:02:59.866Z,15.40
2022-08-17T18:05:47.805Z,15.13
2022-08-17T18:08:15.291Z,16.95
2022-08-17T18:11:05.134Z,19.73
2022-08-17T18:13:44.667Z,17.23
2022-08-17T18:16:15.410Z,18.55
2022-08-17T18:18:46.199Z,20.88
2022-08-17T18:21:16.919Z,25.33
2022-08-17T18:23:54.716Z,17.00
2022-08-17T18:26:36.748Z,18.30
2022-08-17T18:29:16.029Z,19.73
2022-08-17T18:31:43.565Z,21.67
2022-08-17T18:37:26.777Z,26.10
2022-08-17T18:39:54.417Z,33.42
2022-08-17T18:42:28.388Z,42.67
2022-08-17T18:44:56.699Z,41.38
2022-08-17T18:47:29.556Z,34.03
2022-08-17T18:50:18.918Z,29.60
2022-08-17T18:52:48.844Z,22.15
2022-08-17T18:55:31.417Z,22.38
2022-08-17T18:58:20.889Z,14.45
2022-08-17T19:00:51.089Z,16.27
2022-08-17T19:03:18.708Z,17.70
2022-08-17T19:06:22.203Z,21.55
2022-08-17T19:08:50.031Z,18.33
2022-08-17T19:11:26.179Z,12.90
2022-08-17T19:13:57.664Z,12.32
2022-08-17T19:16:52.337Z,10.70
2022-08-17T19:19:28.696Z,13.35
2022-08-17T19:22:02.464Z,12.85
2022-08-17T19:24:33.727Z,11.93
2022-08-17T19:27:19.898Z,16.73
2022-08-17T19:30:08.282Z,13.15
2022-08-17T19:32:36.377Z,15.93
2022-08-17T19:35:08.239Z,13.63
2022-08-17T19:38:22.164Z,13.07
2022-08-17T19:41:19.414Z,11.23
2022-08-17T19:44:02.282Z,14.40
2022-08-17T19:46:48.538Z,15.05
2022-08-17T19:49:41.159Z,14.10
2022-08-17T19:52:24.210Z,14.60
2022-08-17T19:55:04.763Z,15.45
2022-08-17T19:57:34.910Z,14.15
2022-08-17T20:00:05.201Z,12.32
2022-08-17T20:02:57.170Z,14.35
2022-08-17T20:05:29.446Z,14.40
2022-08-17T20:08:17.843Z,13.85
2022-08-17T20:11:07.005Z,15.68
2022-08-17T20:13:44.305Z,13.60
2022-08-17T20:16:12.504Z,13.38
2022-08-17T20:19:00.378Z,20.27
2022-08-17T20:21:48.567Z,19.42
2022-08-17T20:24:34.482Z,13.40
2022-08-17T20:27:21.737Z,12.05
2022-08-17T20:30:13.207Z,12.82
2022-08-17T20:32:52.490Z,15.50
2022-08-17T20:35:27.122Z,13.60
2022-08-17T20:38:36.349Z,11.13
2022-08-17T20:41:04.065Z,11.95
2022-08-17T20:46:24.439Z,10.02
2022-08-17T20:48:56.988Z,13.20
2022-08-17T20:51:46.263Z,12.88
2022-08-17T20:54:44.505Z,11.77
2022-08-17T20:57:38.271Z,14.35
2022-08-17T21:00:27.672Z,11.88
2022-08-17T21:03:23.026Z,11.60
2022-08-17T21:06:00.202Z,18.88
2022-08-17T21:08:40.361Z,19.00
2022-08-17T21:12:02.509Z,15.25
2022-08-17T21:14:26.137Z,15.77
2022-08-17T21:17:02.786Z,11.75
2022-08-17T21:20:11.561Z,11.35
2022-08-17T21:22:48.636Z,10.80
2022-08-17T21:25:43.730Z,10.52
2022-08-17T21:28:21.503Z,14.10
2022-08-17T21:30:58.705Z,12.88
2022-08-17T21:33:34.170Z,14.55
2022-08-17T21:36:13.594Z,13.57
2022-08-17T21:38:44.137Z,12.50
2022-08-17T21:41:31.822Z,11.95
2022-08-17T21:44:21.754Z,13.50
2022-08-17T21:46:52.386Z,13.50
2022-08-17T21:49:27.074Z,12.20
2022-08-17T21:51:56.222Z,12.65
2022-08-17T21:54:26.401Z,14.48
2022-08-17T21:56:54.767Z,12.13
2022-08-17T21:59:26.225Z,15.80
2022-08-17T22:01:56.118Z,12.98
2022-08-17T22:04:32.817Z,14.25
2022-08-17T22:07:08.949Z,14.32
2022-08-17T22:09:45.362Z,12.77
2022-08-17T22:12:20.360Z,15.48
2022-08-17T22:15:07.624Z,16.23
2022-08-17T22:17:46.558Z,16.38
2022-08-17T22:20:20.662Z,14.35
2022-08-17T22:23:06.721Z,15.55
2022-08-17T22:25:40.785Z,18.20
2022-08-17T22:28:12.837Z,12.73
2022-08-17T22:31:02.012Z,13.98
2022-08-17T22:33:37.828Z,13.23
2022-08-17T22:36:14.529Z,19.63
2022-08-17T22:38:43.595Z,12.60
2022-08-17T22:41:14.192Z,19.08
2022-08-17T22:43:44.651Z,15.18
2022-08-17T22:46:12.781Z,19.38
2022-08-17T22:48:52.511Z,12.30
2022-08-17T22:51:24.022Z,15.10
2022-08-17T22:54:13.227Z,14.65
2022-08-17T22:57:18.702Z,13.80
2022-08-17T22:59:53.054Z,16.42
2022-08-17T23:02:30.462Z,16.40
2022-08-17T23:05:13.167Z,13.07
2022-08-17T23:07:48.879Z,11.98
2022-08-17T23:10:16.355Z,12.82
2022-08-17T23:12:43.833Z,11.43
2022-08-17T23:15:16.547Z,10.50
2022-08-17T23:17:45.262Z,11.98
2022-08-17T23:20:15.178Z,10.02
2022-08-17T23:22:51.871Z,10.00
2022-08-17T23:25:29.797Z,10.93
2022-08-17T23:28:01.839Z,9.70
2022-08-17T23:30:31.361Z,13.50
2022-08-17T23:33:01.490Z,12.32
2022-08-17T23:35:39.824Z,13.37
2022-08-17T23:38:12.527Z,14.50
2022-08-17T23:40:41.101Z,13.05
2022-08-17T23:45:59.828Z,11.75
2022-08-17T23:48:35.640Z,12.27
2022-08-17T23:51:12.456Z,12.27
2022-08-17T23:53:47.434Z,13.35
2022-08-17T23:56:15.541Z,14.10
2022-08-17T23:58:44.941Z,13.60
